Time;durP1;ratioP1;P1;durP2;ratioP2;P2;SDS_P1;SDS_P2;PMS_P1;PMS_P2;Temp;Humidity;BMP_temperature;BMP_pressure;BME280_temperature;BME280_humidity;BME280_pressure;Samples;Min_cycle;Max_cycle;Signal;HPM_P1;HPM_P2
2023/03/12 00:01:20;;;;;;;0.30;0.30;;;;;;;3.15;69.59;101214.06;4992513;28;97848;-29
2023/03/12 00:03:47;;;;;;;0.75;0.40;;;;;;;3.14;69.37;101212.28;4990985;28;100844;-31
2023/03/12 00:06:13;;;;;;;0.65;0.50;;;;;;;3.12;69.02;101193.59;4991186;28;96545;-30
2023/03/12 00:08:39;;;;;;;0.55;0.30;;;;;;;3.13;68.55;101192.66;4990821;28;97470;-29
2023/03/12 00:11:12;;;;;;;0.10;0.10;;;;;;;3.16;68.67;101199.75;4991801;28;97906;-30
2023/03/12 00:13:37;;;;;;;0.32;0.32;;;;;;;3.16;68.60;101200.63;4992636;28;99128;-29
2023/03/12 00:16:05;;;;;;;0.40;0.40;;;;;;;3.18;67.80;101197.91;4992564;28;96413;-29
2023/03/12 00:18:30;;;;;;;0.10;0.10;;;;;;;3.21;68.27;101195.16;4990841;28;96786;-30
2023/03/12 00:20:56;;;;;;;0.68;0.57;;;;;;;3.20;67.43;101190.72;4991522;28;99319;-30
2023/03/12 00:23:21;;;;;;;0.08;0.08;;;;;;;3.21;66.67;101194.28;4991804;28;99193;-29
2023/03/12 00:25:46;;;;;;;0.55;0.52;;;;;;;3.23;66.99;101187.97;4991885;28;96591;-31
2023/03/12 00:28:12;;;;;;;0.80;0.55;;;;;;;3.25;67.64;101188.81;4992290;28;96859;-30
2023/03/12 00:30:39;;;;;;;0.45;0.35;;;;;;;3.26;67.12;101179.84;4992137;28;97909;-29
2023/03/12 00:33:04;;;;;;;0.52;0.40;;;;;;;3.31;67.32;101179.72;4990552;28;101101;-30
2023/03/12 00:35:29;;;;;;;0.57;0.28;;;;;;;3.30;67.02;101176.16;4992303;28;96631;-31
2023/03/12 00:37:55;;;;;;;0.32;0.30;;;;;;;3.32;66.56;101168.13;4992337;28;96717;-29
2023/03/12 00:40:20;;;;;;;0.40;0.20;;;;;;;3.31;65.36;101172.59;4991893;28;99196;-29
2023/03/12 00:42:45;;;;;;;0.15;0.15;;;;;;;3.32;66.49;101177.03;4992085;28;97350;-30
2023/03/12 00:45:11;;;;;;;0.15;0.15;;;;;;;3.35;65.34;101179.59;4991669;28;96537;-29
2023/03/12 00:47:36;;;;;;;0.73;0.40;;;;;;;3.35;65.06;101168.03;4991800;28;96808;-30
2023/03/12 00:50:02;;;;;;;0.28;0.22;;;;;;;3.37;65.33;101169.75;4991650;28;99291;-30
2023/03/12 00:52:27;;;;;;;0.20;0.20;;;;;;;3.37;65.72;101163.50;4991420;28;98944;-30
2023/03/12 00:54:57;;;;;;;0.25;0.25;;;;;;;3.36;65.60;101149.25;4992162;28;96591;-30
2023/03/12 00:57:22;;;;;;;0.10;0.10;;;;;;;3.37;65.61;101153.66;4990494;28;96797;-29
2023/03/12 00:59:47;;;;;;;0.10;0.10;;;;;;;3.32;65.38;101146.69;4991772;28;97677;-30
2023/03/12 01:02:13;;;;;;;0.20;0.15;;;;;;;3.36;66.47;101159.97;4992056;28;97267;-30
2023/03/12 01:04:38;;;;;;;0.65;0.52;;;;;;;3.37;65.51;101163.50;4992168;28;96494;-31
2023/03/12 01:07:04;;;;;;;0.90;0.60;;;;;;;3.38;65.47;101163.47;4991395;28;96678;-29
2023/03/12 01:09:29;;;;;;;0.25;0.25;;;;;;;3.35;65.20;101160.88;4992233;28;97332;-29
2023/03/12 01:11:54;;;;;;;0.10;0.10;;;;;;;3.35;64.61;101166.22;4993703;28;101059;-29
2023/03/12 01:14:20;;;;;;;0.28;0.13;;;;;;;3.39;65.27;101164.34;4995406;28;96710;-29
2023/03/12 01:16:45;;;;;;;0.25;0.25;;;;;;;3.38;65.36;101155.44;4995474;28;96728;-29
2023/03/12 01:19:11;;;;;;;0.28;0.25;;;;;;;3.40;66.06;101150.91;4995104;28;97929;-29
2023/03/12 01:21:36;;;;;;;1.35;0.25;;;;;;;3.39;65.62;101156.31;4994562;28;99316;-29
2023/03/12 01:24:02;;;;;;;0.73;0.73;;;;;;;3.40;66.60;101147.34;4995034;28;96595;-29
2023/03/12 01:26:27;;;;;;;0.43;0.43;;;;;;;3.38;65.84;101136.72;4995073;28;96762;-29
2023/03/12 01:28:52;;;;;;;0.85;0.35;;;;;;;3.40;65.65;101133.97;4994530;28;99243;-29
2023/03/12 01:31:18;;;;;;;2.35;0.63;;;;;;;3.37;65.70;101124.22;4994885;28;98037;-30
2023/03/12 01:33:47;;;;;;;0.40;0.40;;;;;;;3.42;66.36;101131.25;4994361;28;96571;-29
2023/03/12 01:36:18;;;;;;;0.00;0.00;;;;;;;3.42;66.49;101123.22;4993359;28;96845;-30
2023/03/12 01:38:44;;;;;;;0.10;0.05;;;;;;;3.41;66.59;101122.34;4993286;28;100858;-29
2023/03/12 01:41:09;;;;;;;0.77;0.40;;;;;;;3.40;66.73;101120.56;4994706;28;97777;-31
2023/03/12 01:43:37;;;;;;;0.05;0.00;;;;;;;3.43;66.71;101116.94;4994977;28;96559;-29
2023/03/12 01:46:23;;;;;;;0.40;0.40;;;;;;;3.40;67.06;101109.88;4993211;28;96830;-30
2023/03/12 01:49:11;;;;;;;0.10;0.10;;;;;;;3.40;67.08;101110.75;4992943;28;100856;-30
2023/03/12 01:51:51;;;;;;;0.30;0.30;;;;;;;3.40;67.37;101101.84;4993904;28;97970;-29
2023/03/12 01:54:26;;;;;;;0.10;0.10;;;;;;;3.38;67.14;101101.00;4993182;28;96551;-29
2023/03/12 01:56:53;;;;;;;0.10;0.10;;;;;;;3.40;67.41;101102.72;4992915;28;96783;-29
2023/03/12 01:59:36;;;;;;;0.22;0.22;;;;;;;3.40;67.51;101096.47;4992350;28;101150;-29
2023/03/12 02:02:03;;;;;;;0.63;0.20;;;;;;;3.42;67.70;101094.66;4994498;28;97894;-30
2023/03/12 02:04:30;;;;;;;0.70;0.22;;;;;;;3.40;67.88;101094.69;4992945;28;96612;-29
2023/03/12 02:07:04;;;;;;;2.42;0.60;;;;;;;3.40;67.64;101093.81;4994239;28;96779;-29
2023/03/12 02:09:33;;;;;;;0.03;0.03;;;;;;;3.36;67.12;101089.44;4991966;28;101405;-29
2023/03/12 02:11:59;;;;;;;0.05;0.05;;;;;;;3.34;67.53;101065.41;4994476;28;97959;-30
2023/03/12 02:14:25;;;;;;;0.05;0.03;;;;;;;3.34;67.30;101067.22;4992770;28;96623;-29
2023/03/12 02:16:52;;;;;;;0.20;0.20;;;;;;;3.31;67.89;101065.50;4994684;28;96724;-29
2023/03/12 02:19:26;;;;;;;0.17;0.15;;;;;;;3.31;66.73;101068.19;4992632;28;100801;-29
2023/03/12 02:21:51;;;;;;;0.20;0.20;;;;;;;3.28;66.44;101054.00;4991854;28;100806;-29
2023/03/12 02:25:02;;;;;;;0.30;0.28;;;;;;;3.30;66.95;101055.72;4993489;28;96553;-30
2023/03/12 02:27:31;;;;;;;0.30;0.30;;;;;;;3.32;66.67;101047.66;4993894;28;96613;-29
2023/03/12 02:29:57;;;;;;;0.10;0.10;;;;;;;3.31;66.68;101037.84;4992477;28;99064;-29
2023/03/12 02:32:26;;;;;;;1.75;0.52;;;;;;;3.34;67.65;101044.00;4993408;28;99130;-30
2023/03/12 02:34:52;;;;;;;0.08;0.08;;;;;;;3.34;67.50;101037.78;4992538;28;96755;-29
2023/03/12 02:37:18;;;;;;;0.40;0.30;;;;;;;3.36;67.63;101050.19;4994449;28;96808;-30
2023/03/12 02:39:50;;;;;;;0.00;0.00;;;;;;;3.35;68.45;101050.22;4992229;28;100709;-29
2023/03/12 02:42:16;;;;;;;1.90;0.22;;;;;;;3.34;67.96;101049.34;4992797;28;100791;-29
2023/03/12 02:44:42;;;;;;;0.40;0.30;;;;;;;3.38;68.40;101045.69;4992539;28;96503;-29
2023/03/12 02:47:08;;;;;;;0.20;0.15;;;;;;;3.37;68.39;101046.56;4992192;28;96849;-29
2023/03/12 02:49:33;;;;;;;0.00;0.00;;;;;;;3.35;68.38;101037.72;4992951;28;99332;-29
2023/03/12 02:52:00;;;;;;;0.55;0.30;;;;;;;3.36;68.45;101047.50;4992171;28;98834;-29
2023/03/12 02:54:25;;;;;;;0.20;0.13;;;;;;;3.38;68.87;101048.34;4992102;28;96573;-29
2023/03/12 02:56:51;;;;;;;4.30;0.22;;;;;;;3.33;69.06;101034.19;4993815;28;96582;-29
2023/03/12 02:59:19;;;;;;;0.50;0.22;;;;;;;3.33;69.56;101042.22;4991947;28;100658;-29
2023/03/12 03:01:45;;;;;;;0.00;0.00;;;;;;;3.30;68.98;101031.63;4991903;28;101340;-29
2023/03/12 03:04:11;;;;;;;0.55;0.35;;;;;;;3.30;69.96;101022.72;4993439;28;96634;-30
2023/03/12 03:06:42;;;;;;;0.40;0.20;;;;;;;3.27;69.61;101021.00;4993979;28;96723;-29
2023/03/12 03:09:07;;;;;;;0.20;0.20;;;;;;;3.27;69.73;101015.66;4991780;28;101024;-30
2023/03/12 03:11:33;;;;;;;0.17;0.08;;;;;;;3.27;70.11;101012.97;4992678;28;99423;-30
2023/03/12 03:13:58;;;;;;;0.20;0.20;;;;;;;3.24;70.42;100996.09;4992627;28;96656;-29
2023/03/12 03:16:24;;;;;;;0.15;0.10;;;;;;;3.22;71.17;100988.13;4993219;28;96490;-29
2023/03/12 03:18:50;;;;;;;0.30;0.20;;;;;;;3.25;71.38;100987.16;4991692;28;99394;-29
2023/03/12 03:21:16;;;;;;;0.73;0.08;;;;;;;3.22;71.32;100974.75;4991552;28;100558;-29
2023/03/12 03:23:44;;;;;;;0.40;0.30;;;;;;;3.21;72.02;100981.00;4991454;28;96709;-29
2023/03/12 03:26:09;;;;;;;0.30;0.30;;;;;;;3.19;72.33;100970.38;4991472;28;96826;-31
2023/03/12 03:28:35;;;;;;;0.10;0.10;;;;;;;3.24;71.49;100967.53;4992400;28;99371;-29
2023/03/12 03:31:01;;;;;;;1.10;0.60;;;;;;;3.23;72.32;100968.47;4993405;28;97844;-30
2023/03/12 03:33:31;;;;;;;0.10;0.10;;;;;;;3.23;73.18;100960.44;4991799;28;96668;-30
2023/03/12 03:35:58;;;;;;;0.00;0.00;;;;;;;3.24;72.54;100947.94;4991527;28;96710;-29
2023/03/12 03:38:25;;;;;;;0.00;0.00;;;;;;;3.22;72.52;100960.47;4990956;28;101430;-31
2023/03/12 03:40:51;;;;;;;0.10;0.10;;;;;;;3.17;73.26;100961.50;4991441;28;101058;-29
2023/03/12 03:43:16;;;;;;;0.95;0.40;;;;;;;3.22;72.56;100944.41;4991293;28;96661;-29
2023/03/12 03:45:43;;;;;;;0.30;0.20;;;;;;;3.23;72.72;100954.22;4993264;28;96769;-29
2023/03/12 03:48:12;;;;;;;0.63;0.32;;;;;;;3.17;73.64;100955.25;4991115;28;100947;-28
2023/03/12 03:50:38;;;;;;;0.17;0.15;;;;;;;3.15;73.68;100952.63;4991261;28;101085;-29
2023/03/12 03:53:05;;;;;;;0.20;0.20;;;;;;;3.15;74.22;100946.41;4991221;28;96519;-29
2023/03/12 03:55:30;;;;;;;0.22;0.10;;;;;;;3.18;73.59;100943.63;4991462;28;96820;-29
2023/03/12 03:57:56;;;;;;;0.00;0.00;;;;;;;3.17;74.24;100947.22;4992410;28;97557;-28
2023/03/12 04:00:21;;;;;;;0.40;0.20;;;;;;;3.13;74.74;100943.78;4992632;28;97480;-30
2023/03/12 04:02:46;;;;;;;0.00;0.00;;;;;;;3.16;75.05;100932.09;4992321;28;96497;-30
2023/03/12 04:05:12;;;;;;;0.10;0.10;;;;;;;3.19;74.60;100932.00;4992692;28;96742;-31
2023/03/12 04:07:37;;;;;;;0.65;0.30;;;;;;;3.21;74.38;100943.53;4992117;28;98939;-29
2023/03/12 04:10:04;;;;;;;0.20;0.20;;;;;;;3.16;74.73;100945.47;4991693;28;98758;-34
2023/03/12 04:12:29;;;;;;;0.52;0.30;;;;;;;3.10;76.07;100951.91;4990734;28;96628;-31
2023/03/12 04:14:54;;;;;;;0.55;0.15;;;;;;;3.07;76.56;100954.66;4992547;28;96725;-30
2023/03/12 04:17:20;;;;;;;0.35;0.20;;;;;;;3.05;78.05;100959.19;4992467;28;96827;-29
2023/03/12 04:19:46;;;;;;;0.20;0.20;;;;;;;3.01;78.23;100945.94;4992766;28;97859;-30
2023/03/12 04:22:11;;;;;;;0.57;0.30;;;;;;;2.96;80.22;100943.41;4992243;28;96558;-30
2023/03/12 04:24:37;;;;;;;0.00;0.00;;;;;;;2.91;82.63;100932.81;4992302;28;96767;-29
2023/03/12 04:27:02;;;;;;;1.15;0.22;;;;;;;2.87;82.35;100922.25;4991665;28;97584;-29
2023/03/12 04:29:27;;;;;;;0.30;0.10;;;;;;;2.81;84.49;100923.28;4991901;28;98770;-31
2023/03/12 04:31:53;;;;;;;0.20;0.20;;;;;;;2.74;85.08;100917.25;4992410;28;96678;-31
2023/03/12 04:34:18;;;;;;;0.08;0.08;;;;;;;2.72;85.42;100912.88;4992315;28;97168;-29
2023/03/12 04:36:45;;;;;;;0.10;0.03;;;;;;;2.70;86.93;100901.34;4992225;28;97381;-30
2023/03/12 04:39:11;;;;;;;0.60;0.35;;;;;;;2.66;87.49;100888.97;4990583;28;100910;-31
2023/03/12 04:41:37;;;;;;;0.80;0.52;;;;;;;2.66;88.63;100889.84;4992034;28;96655;-29
2023/03/12 04:44:03;;;;;;;0.40;0.40;;;;;;;2.67;88.48;100875.56;4992170;28;96885;-29
2023/03/12 04:46:28;;;;;;;0.30;0.20;;;;;;;2.68;89.00;100868.41;4995718;28;97882;-30
2023/03/12 04:48:54;;;;;;;0.13;0.13;;;;;;;2.66;87.35;100857.75;4995401;28;97818;-29
2023/03/12 04:51:20;;;;;;;0.22;0.20;;;;;;;2.63;88.60;100847.16;4994943;28;96624;-30
2023/03/12 04:53:45;;;;;;;0.65;0.30;;;;;;;2.64;90.99;100869.41;4995543;28;96880;-29
2023/03/12 04:56:11;;;;;;;0.30;0.30;;;;;;;2.65;90.10;100866.69;4994924;28;99232;-30
2023/03/12 04:58:36;;;;;;;1.65;0.47;;;;;;;2.68;89.92;100865.72;4993923;28;100440;-30
2023/03/12 05:01:02;;;;;;;0.30;0.30;;;;;;;2.64;90.70;100859.59;4995295;28;96715;-30
2023/03/12 05:03:28;;;;;;;0.10;0.10;;;;;;;2.67;90.36;100853.25;4994007;28;96801;-29
2023/03/12 05:05:53;;;;;;;0.17;0.17;;;;;;;2.67;90.26;100862.19;4995402;28;97867;-29
2023/03/12 05:08:18;;;;;;;0.15;0.15;;;;;;;2.63;91.87;100867.66;4995214;28;99309;-29
2023/03/12 05:10:44;;;;;;;0.25;0.22;;;;;;;2.65;91.50;100874.72;4994547;28;96692;-29
2023/03/12 05:13:15;;;;;;;1.08;0.52;;;;;;;2.66;89.58;100872.91;4993753;28;96824;-30
2023/03/12 05:15:41;;;;;;;0.05;0.05;;;;;;;2.62;91.15;100868.56;4993188;28;100981;-29
2023/03/12 05:18:07;;;;;;;0.03;0.03;;;;;;;2.63;91.30;100875.69;4993589;28;101041;-31
2023/03/12 05:20:32;;;;;;;0.03;0.03;;;;;;;2.61;91.95;100862.34;4995449;28;96601;-31
2023/03/12 05:22:57;;;;;;;0.43;0.35;;;;;;;2.63;92.36;100868.53;4995051;28;96871;-30
2023/03/12 05:25:22;;;;;;;0.32;0.30;;;;;;;2.60;92.75;100865.97;4994560;28;97929;-30
2023/03/12 05:27:48;;;;;;;0.10;0.10;;;;;;;2.65;91.93;100865.84;4994621;28;99048;-29
2023/03/12 05:30:13;;;;;;;0.00;0.00;;;;;;;2.64;91.64;100869.41;4995178;28;96570;-28
2023/03/12 05:32:39;;;;;;;0.10;0.10;;;;;;;2.64;92.28;100869.41;4995217;28;96688;-29
2023/03/12 05:35:04;;;;;;;0.20;0.20;;;;;;;2.66;91.08;100878.28;4994808;28;97450;-29
2023/03/12 05:37:30;;;;;;;0.35;0.30;;;;;;;2.63;92.57;100878.38;4994887;28;97919;-29
2023/03/12 05:39:55;;;;;;;0.08;0.08;;;;;;;2.64;92.69;100877.44;4994087;28;96617;-32
2023/03/12 05:42:23;;;;;;;0.28;0.28;;;;;;;2.67;94.00;100878.25;4994938;28;96794;-30
2023/03/12 05:44:50;;;;;;;0.17;0.10;;;;;;;2.67;94.25;100878.25;4993176;28;101319;-31
2023/03/12 05:47:15;;;;;;;0.05;0.05;;;;;;;2.68;94.41;100876.44;4994594;28;98056;-30
2023/03/12 05:49:41;;;;;;;0.20;0.20;;;;;;;2.61;95.01;100870.38;4994655;28;96675;-29
2023/03/12 05:52:06;;;;;;;0.98;0.38;;;;;;;2.63;96.34;100867.66;4994623;28;96539;-29
2023/03/12 05:54:32;;;;;;;0.30;0.30;;;;;;;2.63;94.52;100857.84;4994333;28;97532;-29
2023/03/12 05:56:58;;;;;;;0.17;0.03;;;;;;;2.66;95.42;100859.56;4993598;28;99076;-29
2023/03/12 05:59:23;;;;;;;0.73;0.43;;;;;;;2.65;95.14;100864.03;4994755;28;96424;-29
2023/03/12 06:01:48;;;;;;;0.25;0.20;;;;;;;2.63;96.20;100854.31;4994410;28;96720;-30
2023/03/12 06:04:14;;;;;;;0.15;0.15;;;;;;;2.62;96.14;100858.78;4993667;28;99218;-31
2023/03/12 06:06:39;;;;;;;0.00;0.00;;;;;;;2.62;97.84;100850.75;4994355;28;97830;-29
2023/03/12 06:09:05;;;;;;;0.10;0.10;;;;;;;2.63;98.36;100860.53;4994142;28;96559;-29
2023/03/12 06:11:32;;;;;;;0.80;0.63;;;;;;;2.61;98.17;100846.31;4974968;28;96871;-30
2023/03/12 06:13:57;;;;;;;0.60;0.10;;;;;;;2.62;99.17;100852.53;4974262;28;97991;-30
2023/03/12 06:16:25;;;;;;;0.38;0.20;;;;;;;2.66;99.72;100854.19;4974334;28;97745;-29
2023/03/12 06:19:00;;;;;;;0.10;0.10;;;;;;;2.69;100.00;100856.78;4974407;28;96582;-29
2023/03/12 06:21:29;;;;;;;0.77;0.47;;;;;;;2.72;99.68;100852.22;4974496;28;97113;-30
2023/03/12 06:23:54;;;;;;;0.28;0.20;;;;;;;2.72;98.71;100846.00;4972415;28;101145;-29
2023/03/12 06:26:21;;;;;;;0.25;0.25;;;;;;;2.73;98.95;100840.59;4973569;28;98711;-31
2023/03/12 06:28:47;;;;;;;0.10;0.10;;;;;;;2.70;100.00;100829.13;4972256;28;97236;-30
2023/03/12 06:31:14;;;;;;;0.10;0.10;;;;;;;2.75;100.00;100828.06;4972637;28;97121;-30
2023/03/12 06:33:39;;;;;;;0.28;0.28;;;;;;;2.79;100.00;100825.28;4972566;28;101211;-30
2023/03/12 06:36:06;;;;;;;0.15;0.15;;;;;;;2.80;100.00;100819.91;4973513;28;99262;-29
2023/03/12 06:38:32;;;;;;;0.43;0.10;;;;;;;2.78;100.00;100819.06;4972476;28;96903;-29
2023/03/12 06:41:00;;;;;;;0.00;0.00;;;;;;;2.83;100.00;100830.50;4973908;28;96752;-31
2023/03/12 06:43:28;;;;;;;0.10;0.10;;;;;;;2.83;100.00;100810.91;4972316;28;101220;-29
2023/03/12 06:45:56;;;;;;;0.22;0.22;;;;;;;2.85;100.00;100814.41;4972577;28;101185;-31
2023/03/12 06:48:22;;;;;;;0.17;0.15;;;;;;;2.89;100.00;100818.75;4972288;28;96629;-30
2023/03/12 06:50:48;;;;;;;0.20;0.20;;;;;;;2.89;100.00;100816.09;4973747;28;96821;-30
2023/03/12 06:53:13;;;;;;;0.17;0.08;;;;;;;2.92;100.00;100821.34;4971899;28;100545;-30
2023/03/12 06:55:39;;;;;;;0.17;0.17;;;;;;;2.92;100.00;100821.34;4973770;28;97753;-29
2023/03/12 06:58:04;;;;;;;0.43;0.40;;;;;;;2.93;100.00;100813.28;4973651;28;96482;-29
2023/03/12 07:00:33;;;;;;;0.00;0.00;;;;;;;2.93;100.00;100818.63;4973689;28;96888;-30
2023/03/12 07:02:59;;;;;;;0.10;0.10;;;;;;;2.93;100.00;100823.97;4973437;28;97472;-30
2023/03/12 07:05:24;;;;;;;0.10;0.10;;;;;;;2.98;100.00;100824.72;4973445;28;98602;-31
2023/03/12 07:07:50;;;;;;;0.40;0.22;;;;;;;3.00;100.00;100823.78;4973541;28;96621;-30
2023/03/12 07:10:16;;;;;;;0.20;0.20;;;;;;;3.03;100.00;100823.66;4979367;28;96868;-30
2023/03/12 07:12:42;;;;;;;0.20;0.20;;;;;;;3.06;100.00;100829.81;4993179;28;97915;-30
2023/03/12 07:15:08;;;;;;;0.52;0.45;;;;;;;3.08;100.00;100827.97;4991874;28;98864;-30
2023/03/12 07:17:33;;;;;;;0.50;0.47;;;;;;;3.11;100.00;100830.53;4992681;28;96594;-30
2023/03/12 07:19:59;;;;;;;0.20;0.20;;;;;;;3.13;100.00;100830.50;4993164;28;96750;-30
2023/03/12 07:22:25;;;;;;;0.20;0.20;;;;;;;3.15;100.00;100828.66;4992856;28;99795;-29
2023/03/12 07:24:50;;;;;;;0.47;0.43;;;;;;;3.18;100.00;100828.56;4992483;28;99195;-30
2023/03/12 07:27:16;;;;;;;0.10;0.10;;;;;;;3.18;100.00;100825.88;4993238;28;96619;-30
2023/03/12 07:29:42;;;;;;;0.05;0.05;;;;;;;3.21;100.00;100825.78;4991601;28;96909;-29
2023/03/12 07:32:07;;;;;;;0.45;0.45;;;;;;;3.25;100.00;100821.22;4991583;28;101068;-30
2023/03/12 07:34:33;;;;;;;0.30;0.30;;;;;;;3.26;100.00;100820.28;4993157;28;98467;-29
2023/03/12 07:36:59;;;;;;;0.10;0.10;;;;;;;3.28;100.00;100821.97;4993157;28;96658;-29
2023/03/12 07:39:24;;;;;;;0.85;0.68;;;;;;;3.33;100.00;100828.06;4993052;28;96800;-31
2023/03/12 07:41:50;;;;;;;0.30;0.30;;;;;;;3.34;100.00;100826.28;4992412;28;98034;-30
2023/03/12 07:44:15;;;;;;;0.30;0.30;;;;;;;3.38;100.00;100822.56;4992645;28;99135;-30
2023/03/12 07:46:40;;;;;;;0.38;0.38;;;;;;;3.42;100.00;100829.56;4992656;28;96617;-29
2023/03/12 07:49:06;;;;;;;0.82;0.50;;;;;;;3.48;100.00;100833.84;4992665;28;96840;-30
2023/03/12 07:51:31;;;;;;;2.20;0.65;;;;;;;3.49;100.00;100830.25;4992778;28;97993;-28
2023/03/12 07:53:57;;;;;;;0.52;0.52;;;;;;;3.56;100.00;100834.50;4992744;28;97737;-30
2023/03/12 07:56:22;;;;;;;0.98;0.82;;;;;;;3.63;100.00;100849.44;4991384;28;96617;-29
2023/03/12 07:58:48;;;;;;;2.55;1.55;;;;;;;3.65;99.51;100830.59;4993164;28;96774;-30
2023/03/12 08:01:13;;;;;;;0.45;0.45;;;;;;;3.72;100.00;100834.84;4992553;28;97353;-30
2023/03/12 08:03:39;;;;;;;0.38;0.38;;;;;;;3.74;100.00;100833.88;4992059;28;98844;-30
2023/03/12 08:06:05;;;;;;;0.75;0.60;;;;;;;3.82;99.75;100842.53;4992184;28;96569;-30
2023/03/12 08:08:30;;;;;;;1.08;0.80;;;;;;;3.83;99.04;100836.22;4991037;28;97906;-31
2023/03/12 08:10:57;;;;;;;0.45;0.45;;;;;;;3.90;98.90;100836.91;4991606;28;99209;-29
2023/03/12 08:13:23;;;;;;;0.95;0.90;;;;;;;3.96;98.91;100843.88;4992382;28;97310;-30
2023/03/12 08:15:52;;;;;;;0.50;0.50;;;;;;;4.01;99.81;100845.44;4990865;28;98050;-28
2023/03/12 08:18:19;;;;;;;0.55;0.55;;;;;;;4.03;99.06;100840.06;4991374;28;96813;-30
2023/03/12 08:20:45;;;;;;;1.02;0.80;;;;;;;4.12;98.72;100847.75;4990722;28;99186;-29
2023/03/12 08:23:10;;;;;;;1.30;0.93;;;;;;;4.18;99.96;100860.94;4992402;28;97840;-29
2023/03/12 08:25:36;;;;;;;1.23;0.68;;;;;;;4.23;100.00;100853.63;4990762;28;96934;-29
2023/03/12 08:28:02;;;;;;;0.55;0.50;;;;;;;4.28;100.00;100852.59;4990812;28;96873;-30
2023/03/12 08:30:29;;;;;;;0.88;0.85;;;;;;;4.30;99.99;100864.13;4990215;28;101196;-32
2023/03/12 08:32:54;;;;;;;0.95;0.82;;;;;;;4.39;99.43;100858.44;4990572;28;101330;-29
2023/03/12 08:35:20;;;;;;;0.85;0.55;;;;;;;4.44;99.35;100859.16;4992221;28;96503;-30
2023/03/12 08:37:45;;;;;;;1.73;1.27;;;;;;;4.54;99.15;100862.38;4992144;28;96826;-29
2023/03/12 08:40:12;;;;;;;1.73;1.38;;;;;;;4.62;99.23;100871.91;4991938;28;99195;-29
2023/03/12 08:42:39;;;;;;;1.33;1.10;;;;;;;4.66;99.65;100870.84;4990503;28;101112;-31
2023/03/12 08:45:05;;;;;;;1.48;0.93;;;;;;;4.75;100.00;100877.69;4990641;28;96727;-30
2023/03/12 08:47:30;;;;;;;0.57;0.57;;;;;;;4.78;100.00;100872.19;4992464;28;96778;-29
2023/03/12 08:49:55;;;;;;;0.47;0.47;;;;;;;4.83;100.00;100875.56;4991898;28;97719;-29
2023/03/12 08:52:21;;;;;;;1.27;0.82;;;;;;;4.87;100.00;100862.94;4992014;28;97235;-29
2023/03/12 08:54:46;;;;;;;1.40;0.90;;;;;;;4.94;100.00;100863.59;4991628;28;96550;-29
2023/03/12 08:57:11;;;;;;;1.55;0.98;;;;;;;5.00;100.00;100863.31;4991993;28;96894;-29
2023/03/12 08:59:37;;;;;;;0.88;0.85;;;;;;;5.07;99.56;100864.84;4992132;28;97413;-29
2023/03/12 09:02:03;;;;;;;1.33;0.90;;;;;;;5.18;99.80;100859.94;4990086;28;101108;-29
2023/03/12 09:04:29;;;;;;;0.65;0.65;;;;;;;5.25;99.66;100865.94;4991630;28;96626;-29
2023/03/12 09:06:54;;;;;;;1.08;0.93;;;;;;;5.31;99.23;100857.63;4991749;28;96796;-29
2023/03/12 09:09:20;;;;;;;1.42;0.73;;;;;;;5.39;100.00;100860.03;4990117;28;101172;-29
2023/03/12 09:11:45;;;;;;;1.00;0.85;;;;;;;5.43;98.97;100865.19;4991787;28;97789;-29
2023/03/12 09:14:10;;;;;;;1.33;1.10;;;;;;;5.53;100.00;100863.03;4991473;28;96592;-29
2023/03/12 09:16:36;;;;;;;1.23;1.00;;;;;;;5.58;99.36;100866.41;4991517;28;96475;-29
2023/03/12 09:19:01;;;;;;;0.50;0.50;;;;;;;5.68;100.00;100870.47;4991028;28;97380;-29
2023/03/12 09:21:27;;;;;;;0.63;0.50;;;;;;;5.74;99.54;100880.97;4991524;28;97961;-29
2023/03/12 09:23:52;;;;;;;0.93;0.80;;;;;;;5.84;99.63;100878.78;4991404;28;96594;-29
2023/03/12 09:26:17;;;;;;;3.25;1.35;;;;;;;5.91;99.28;100872.22;4991480;28;96760;-29
2023/03/12 09:28:43;;;;;;;1.20;0.88;;;;;;;6.03;100.00;100878.94;4991532;28;97495;-29
2023/03/12 09:31:10;;;;;;;0.75;0.63;;;;;;;6.08;100.00;100870.66;4993685;28;99651;-29
2023/03/12 09:33:35;;;;;;;0.82;0.63;;;;;;;6.18;100.00;100877.38;4993518;28;96557;-30
2023/03/12 09:36:01;;;;;;;0.45;0.45;;;;;;;6.22;100.00;100875.44;4995290;28;96816;-29
2023/03/12 09:38:27;;;;;;;0.50;0.40;;;;;;;6.28;100.00;100873.34;4993307;28;101614;-29
2023/03/12 09:40:53;;;;;;;1.02;0.55;;;;;;;6.33;100.00;100871.34;4993332;28;100926;-31
2023/03/12 09:43:26;;;;;;;0.90;0.47;;;;;;;6.42;100.00;100886.22;4992846;28;97144;-30
2023/03/12 09:45:53;;;;;;;0.45;0.25;;;;;;;6.48;100.00;100885.91;4993303;28;97202;-29
2023/03/12 09:48:31;;;;;;;0.25;0.25;;;;;;;6.58;100.00;100886.41;4993063;28;100984;-29
2023/03/12 09:51:00;;;;;;;1.27;0.50;;;;;;;6.67;100.00;100891.38;4993192;28;99059;-29
2023/03/12 09:53:45;;;;;;;0.40;0.32;;;;;;;6.75;100.00;100891.03;4993124;28;96618;-29
2023/03/12 09:56:15;;;;;;;0.32;0.28;;;;;;;6.84;100.00;100892.44;4994706;28;96541;-29
2023/03/12 09:58:44;;;;;;;0.77;0.25;;;;;;;6.90;100.00;100893.03;4993147;28;100862;-29
2023/03/12 10:01:27;;;;;;;1.20;0.30;;;;;;;6.95;100.00;100892.81;4993273;28;101350;-30
2023/03/12 10:04:24;;;;;;;3.53;0.40;;;;;;;7.05;100.00;100888.75;4994563;28;96697;-29
2023/03/12 10:07:08;;;;;;;0.77;0.52;;;;;;;7.14;100.00;100890.16;4994390;28;96688;-30
2023/03/12 10:10:08;;;;;;;0.43;0.22;;;;;;;7.21;100.00;100888.91;4991846;28;100852;-29
2023/03/12 10:12:59;;;;;;;0.30;0.10;;;;;;;7.28;100.00;100890.38;4994435;28;97888;-31
2023/03/12 10:15:42;;;;;;;1.00;0.45;;;;;;;7.36;100.00;100892.69;4994265;28;96602;-31
2023/03/12 10:18:23;;;;;;;1.50;0.43;;;;;;;7.39;100.00;100896.13;4994158;28;96686;-29
2023/03/12 10:20:55;;;;;;;1.83;0.40;;;;;;;7.41;100.00;100894.25;4994145;28;97888;-29
2023/03/12 10:23:34;;;;;;;1.17;0.28;;;;;;;7.44;100.00;100890.53;4992409;28;101202;-30
2023/03/12 10:26:08;;;;;;;1.20;0.30;;;;;;;7.47;100.00;100897.59;4992403;28;96931;-29
2023/03/12 10:28:57;;;;;;;1.40;0.38;;;;;;;7.48;100.00;100893.94;4993046;28;96752;-29
2023/03/12 10:31:28;;;;;;;2.92;0.68;;;;;;;7.50;100.00;100884.81;4993433;28;99550;-29
2023/03/12 10:33:59;;;;;;;0.85;0.32;;;;;;;7.52;100.00;100884.75;4992546;28;100997;-29
2023/03/12 10:36:35;;;;;;;0.77;0.40;;;;;;;7.58;100.00;100890.75;4992152;28;97130;-29
2023/03/12 10:39:02;;;;;;;1.98;0.50;;;;;;;7.62;100.00;100892.31;4992724;28;96873;-29
2023/03/12 10:41:31;;;;;;;2.65;0.70;;;;;;;7.63;100.00;100891.38;4991670;28;101180;-30
2023/03/12 10:44:01;;;;;;;0.30;0.17;;;;;;;7.64;100.00;100886.88;4992143;28;100907;-30
2023/03/12 10:46:35;;;;;;;0.75;0.22;;;;;;;7.72;100.00;100889.19;4992532;28;96627;-29
2023/03/12 10:49:28;;;;;;;1.23;0.30;;;;;;;7.84;100.00;100900.25;4993934;28;96960;-29
2023/03/12 10:51:59;;;;;;;0.57;0.30;;;;;;;7.93;100.00;100898.03;4992557;28;99584;-30
2023/03/12 10:54:36;;;;;;;0.47;0.33;;;;;;;7.97;100.00;100905.03;4993748;28;97901;-29
2023/03/12 10:57:02;;;;;;;1.00;0.38;;;;;;;7.98;99.62;100909.47;4992378;28;96729;-30
2023/03/12 10:59:31;;;;;;;0.50;0.13;;;;;;;8.01;100.00;100904.81;4984608;28;96883;-29
2023/03/12 11:01:57;;;;;;;0.98;0.50;;;;;;;8.04;100.00;100910.03;4972839;28;98023;-29
2023/03/12 11:04:27;;;;;;;1.42;0.43;;;;;;;8.11;100.00;100921.41;4972047;28;101389;-30
2023/03/12 11:07:11;;;;;;;1.13;0.38;;;;;;;8.13;100.00;100924.91;4972019;28;97143;-30
2023/03/12 11:09:37;;;;;;;2.47;0.52;;;;;;;8.16;100.00;100921.16;4973060;28;97109;-29
2023/03/12 11:12:23;;;;;;;2.28;0.52;;;;;;;8.21;100.00;100932.59;4971942;28;100831;-30
2023/03/12 11:14:48;;;;;;;0.47;0.28;;;;;;;8.24;100.00;100916.25;4972003;28;101003;-30
2023/03/12 11:17:23;;;;;;;3.13;0.63;;;;;;;8.30;99.03;100918.63;4973559;28;96443;-29
2023/03/12 11:19:48;;;;;;;1.10;0.30;;;;;;;8.33;100.00;100923.88;4973732;28;96820;-32
2023/03/12 11:22:27;;;;;;;1.38;0.22;;;;;;;8.39;100.00;100919.97;4972800;28;99357;-30
2023/03/12 11:24:58;;;;;;;0.77;0.30;;;;;;;8.45;100.00;100922.41;4971625;28;101082;-30
2023/03/12 11:27:59;;;;;;;1.55;0.70;;;;;;;8.52;99.92;100920.28;4972660;28;96570;-31
2023/03/12 11:30:35;;;;;;;2.00;0.57;;;;;;;8.61;99.13;100920.66;4982038;28;96717;-29
2023/03/12 11:33:01;;;;;;;0.80;0.25;;;;;;;8.76;99.38;100904.59;4971673;28;100691;-30